Terminal Aerodrome Forecast
Issued by NWS

Home | Current Version | Previous Version | Text Only | Print | Product List | Glossary On
Versions: 1 2 3 4 5 6 7 8 9 10 11 12 13
000
FTUS42 TJSJ 292340
TAFNCM
TAF
TNCM 292340Z 3000/3024 10007KT P6SM SCT020 BKN080
     FM300300 VRB04KT P6SM VCSH SCT018 BKN090
     FM301330 14010KT P6SM VCTS SCT018CB BKN035
     FM302300 11008KT P6SM SCT025 BKN070=

USA.gov is the U.S. government's official web portal to all federal, state and local government web resources and services.